createdAt,value
2023-05-21T00:01:57.126Z,14.5
2023-05-21T00:11:56.641Z,14.5
2023-05-21T00:22:00.859Z,14.5
2023-05-21T00:31:56.440Z,14.5
2023-05-21T00:41:56.998Z,14.4
2023-05-21T00:51:57.295Z,14.4
2023-05-21T01:01:56.626Z,14.3
2023-05-21T01:11:56.510Z,14.3
2023-05-21T01:21:56.941Z,14.3
2023-05-21T01:31:56.663Z,14.3
2023-05-21T01:41:56.992Z,14.3
2023-05-21T01:51:57.728Z,14.3
2023-05-21T02:01:56.560Z,14.3
2023-05-21T02:11:56.715Z,14.3
2023-05-21T02:21:56.603Z,14.3
2023-05-21T02:31:56.620Z,14.2
2023-05-21T02:41:57.047Z,14.2
2023-05-21T02:51:56.974Z,14.2
2023-05-21T03:01:56.496Z,14.1
2023-05-21T03:11:56.445Z,14.1
2023-05-21T03:21:56.360Z,14.1
2023-05-21T03:31:57.454Z,14.0
2023-05-21T03:41:56.961Z,13.9
2023-05-21T03:51:56.545Z,13.8
2023-05-21T04:01:56.498Z,13.6
2023-05-21T04:11:56.711Z,13.6
2023-05-21T04:21:56.422Z,13.6
2023-05-21T04:31:56.445Z,13.6
2023-05-21T04:41:56.509Z,13.5
2023-05-21T04:51:57.525Z,13.5
2023-05-21T05:01:56.473Z,13.6
2023-05-21T05:11:56.694Z,13.6
2023-05-21T05:21:56.539Z,13.6
2023-05-21T05:31:57.043Z,13.7
2023-05-21T05:41:56.586Z,13.9
2023-05-21T05:51:56.521Z,14.0
2023-05-21T06:01:56.480Z,14.1
2023-05-21T06:11:56.549Z,14.2
2023-05-21T06:21:56.560Z,14.1
2023-05-21T06:31:56.568Z,14.2
2023-05-21T06:41:56.532Z,14.2
2023-05-21T06:51:56.485Z,14.3
2023-05-21T07:01:56.547Z,14.4
2023-05-21T07:11:56.916Z,14.8
2023-05-21T07:21:56.618Z,14.8
2023-05-21T07:31:57.156Z,15.4
2023-05-21T07:41:56.494Z,15.6
2023-05-21T07:51:57.279Z,16.2
2023-05-21T08:01:56.552Z,16.4
2023-05-21T08:11:56.590Z,16.6
2023-05-21T08:21:57.022Z,17.0
2023-05-21T08:31:56.590Z,17.2
2023-05-21T08:41:56.628Z,17.2
2023-05-21T08:51:56.819Z,17.6
2023-05-21T09:01:56.666Z,17.6
2023-05-21T09:11:56.613Z,18.0
2023-05-21T09:21:56.486Z,18.5
2023-05-21T09:31:57.295Z,18.6
2023-05-21T09:41:56.530Z,18.9
2023-05-21T09:51:56.989Z,19.3
2023-05-21T10:01:56.917Z,20.0
2023-05-21T10:11:57.179Z,19.8
2023-05-21T10:21:56.620Z,20.4
2023-05-21T10:31:56.553Z,20.3
2023-05-21T10:41:59.028Z,20.6
2023-05-21T10:51:56.551Z,21.4
2023-05-21T11:01:56.556Z,21.5
2023-05-21T11:11:56.878Z,22.0
2023-05-21T11:21:56.526Z,22.0
2023-05-21T11:31:56.495Z,22.0
2023-05-21T11:41:56.564Z,22.4
2023-05-21T11:51:56.542Z,22.6
2023-05-21T12:01:56.774Z,22.8
2023-05-21T12:11:57.114Z,22.0
2023-05-21T12:21:56.536Z,22.9
2023-05-21T12:31:56.675Z,22.8
2023-05-21T12:41:56.829Z,23.0
2023-05-21T12:51:56.667Z,23.2
2023-05-21T13:01:56.721Z,24.1
2023-05-21T13:11:56.807Z,23.8
2023-05-21T13:21:56.503Z,23.4
2023-05-21T13:31:57.230Z,23.6
2023-05-21T13:41:56.642Z,23.3
2023-05-21T13:51:57.509Z,23.1
2023-05-21T14:01:56.721Z,23.7
2023-05-21T14:11:56.592Z,23.9
2023-05-21T14:21:56.549Z,23.7
2023-05-21T14:31:56.584Z,24.0
2023-05-21T14:41:56.746Z,23.8
2023-05-21T14:51:56.919Z,24.1
2023-05-21T15:01:56.837Z,23.9
2023-05-21T15:11:56.567Z,23.9
2023-05-21T15:21:56.647Z,24.2
2023-05-21T15:31:56.558Z,23.7
2023-05-21T15:41:56.575Z,23.9
2023-05-21T15:51:56.630Z,23.8
2023-05-21T16:01:56.636Z,23.7
2023-05-21T16:11:56.675Z,23.6
2023-05-21T16:21:56.600Z,23.6
2023-05-21T16:31:57.412Z,23.6
2023-05-21T16:41:56.604Z,23.7
2023-05-21T16:51:56.684Z,23.5
2023-05-21T17:01:56.804Z,23.4
2023-05-21T17:11:57.043Z,23.6
2023-05-21T17:21:56.760Z,23.6
2023-05-21T17:31:56.827Z,23.6
2023-05-21T17:41:56.565Z,23.5
2023-05-21T17:51:56.706Z,23.4
2023-05-21T18:01:56.622Z,23.4
2023-05-21T18:11:58.266Z,23.4
2023-05-21T18:21:56.936Z,23.4
2023-05-21T18:31:56.618Z,23.2
2023-05-21T18:51:56.568Z,22.7
2023-05-21T19:01:56.673Z,22.5
2023-05-21T19:11:56.726Z,22.3
2023-05-21T19:21:56.909Z,22.1
2023-05-21T19:31:56.585Z,21.9
2023-05-21T19:41:56.595Z,21.7
2023-05-21T19:51:56.761Z,21.4
2023-05-21T20:01:56.617Z,21.1
2023-05-21T20:11:56.537Z,20.5
2023-05-21T20:21:56.719Z,19.8
2023-05-21T20:31:56.570Z,19.7
2023-05-21T20:41:56.749Z,19.9
2023-05-21T20:51:56.763Z,19.9
2023-05-21T21:01:57.449Z,19.7
2023-05-21T21:11:57.869Z,19.4
2023-05-21T21:21:56.793Z,19.3
2023-05-21T21:31:56.702Z,19.1
2023-05-21T21:41:56.654Z,19.0
2023-05-21T21:51:57.337Z,18.9
2023-05-21T22:01:56.682Z,18.7
2023-05-21T22:11:56.773Z,18.9
2023-05-21T22:21:56.603Z,18.9
2023-05-21T22:31:56.803Z,18.9
2023-05-21T22:41:56.738Z,18.7
2023-05-21T22:51:56.765Z,18.7
2023-05-21T23:02:01.859Z,18.5
2023-05-21T23:11:57.320Z,18.4
2023-05-21T23:21:57.477Z,18.3
2023-05-21T23:31:57.547Z,18.2
2023-05-21T23:41:57.876Z,18.1
2023-05-21T23:51:57.514Z,18.1
